sensor_id;sensor_type;location;lat;lon;timestamp;P1;durP1;ratioP1;P2;durP2;ratioP2
2650;SDS011;1335;48.180;16.342;2023-08-30T00:02:21;1.63;;;1.23;;
2650;SDS011;1335;48.180;16.342;2023-08-30T00:04:48;1.30;;;1.20;;
2650;SDS011;1335;48.180;16.342;2023-08-30T00:07:15;2.53;;;1.10;;
2650;SDS011;1335;48.180;16.342;2023-08-30T00:09:43;1.27;;;1.17;;
2650;SDS011;1335;48.180;16.342;2023-08-30T00:12:10;1.13;;;1.10;;
2650;SDS011;1335;48.180;16.342;2023-08-30T00:14:37;0.97;;;0.97;;
2650;SDS011;1335;48.180;16.342;2023-08-30T00:17:04;1.60;;;1.47;;
2650;SDS011;1335;48.180;16.342;2023-08-30T00:19:33;3.37;;;1.50;;
2650;SDS011;1335;48.180;16.342;2023-08-30T00:22:01;1.43;;;1.43;;
2650;SDS011;1335;48.180;16.342;2023-08-30T00:24:28;1.23;;;1.17;;
2650;SDS011;1335;48.180;16.342;2023-08-30T00:26:55;1.40;;;1.33;;
2650;SDS011;1335;48.180;16.342;2023-08-30T00:29:23;1.30;;;1.27;;
2650;SDS011;1335;48.180;16.342;2023-08-30T00:31:50;1.90;;;1.47;;
2650;SDS011;1335;48.180;16.342;2023-08-30T00:34:17;2.30;;;1.07;;
2650;SDS011;1335;48.180;16.342;2023-08-30T00:36:46;2.00;;;1.50;;
2650;SDS011;1335;48.180;16.342;2023-08-30T00:39:13;1.70;;;1.60;;
2650;SDS011;1335;48.180;16.342;2023-08-30T00:41:40;1.67;;;1.57;;
2650;SDS011;1335;48.180;16.342;2023-08-30T00:44:07;1.30;;;1.20;;
2650;SDS011;1335;48.180;16.342;2023-08-30T00:46:34;1.37;;;1.27;;
2650;SDS011;1335;48.180;16.342;2023-08-30T00:49:01;1.40;;;1.30;;
2650;SDS011;1335;48.180;16.342;2023-08-30T00:51:29;2.10;;;2.00;;
2650;SDS011;1335;48.180;16.342;2023-08-30T00:53:58;1.30;;;1.20;;
2650;SDS011;1335;48.180;16.342;2023-08-30T00:56:26;2.07;;;1.10;;
2650;SDS011;1335;48.180;16.342;2023-08-30T00:58:54;1.30;;;1.20;;
2650;SDS011;1335;48.180;16.342;2023-08-30T01:01:21;1.37;;;1.27;;
2650;SDS011;1335;48.180;16.342;2023-08-30T01:03:49;1.50;;;1.40;;
2650;SDS011;1335;48.180;16.342;2023-08-30T01:06:16;1.83;;;1.30;;
2650;SDS011;1335;48.180;16.342;2023-08-30T01:08:43;1.43;;;1.37;;
2650;SDS011;1335;48.180;16.342;2023-08-30T01:11:13;1.33;;;1.30;;
2650;SDS011;1335;48.180;16.342;2023-08-30T01:13:45;1.00;;;0.97;;
2650;SDS011;1335;48.180;16.342;2023-08-30T01:16:13;1.00;;;0.90;;
2650;SDS011;1335;48.180;16.342;2023-08-30T01:18:42;1.30;;;1.20;;
2650;SDS011;1335;48.180;16.342;2023-08-30T01:21:12;1.10;;;1.10;;
2650;SDS011;1335;48.180;16.342;2023-08-30T01:23:42;1.70;;;1.60;;
2650;SDS011;1335;48.180;16.342;2023-08-30T01:26:16;1.30;;;1.20;;
2650;SDS011;1335;48.180;16.342;2023-08-30T01:28:48;1.13;;;1.13;;
2650;SDS011;1335;48.180;16.342;2023-08-30T01:31:16;1.20;;;1.10;;
2650;SDS011;1335;48.180;16.342;2023-08-30T01:33:45;1.10;;;1.00;;
2650;SDS011;1335;48.180;16.342;2023-08-30T01:36:13;0.90;;;0.90;;
2650;SDS011;1335;48.180;16.342;2023-08-30T01:38:41;1.20;;;1.10;;
2650;SDS011;1335;48.180;16.342;2023-08-30T01:41:08;1.27;;;1.27;;
2650;SDS011;1335;48.180;16.342;2023-08-30T01:43:36;2.10;;;1.20;;
2650;SDS011;1335;48.180;16.342;2023-08-30T01:46:05;1.20;;;1.20;;
2650;SDS011;1335;48.180;16.342;2023-08-30T01:48:32;0.87;;;0.87;;
2650;SDS011;1335;48.180;16.342;2023-08-30T01:51:01;0.87;;;0.87;;
2650;SDS011;1335;48.180;16.342;2023-08-30T01:53:29;2.03;;;1.07;;
2650;SDS011;1335;48.180;16.342;2023-08-30T01:55:57;1.43;;;1.33;;
2650;SDS011;1335;48.180;16.342;2023-08-30T01:58:25;1.00;;;1.00;;
2650;SDS011;1335;48.180;16.342;2023-08-30T02:00:52;0.90;;;0.90;;
2650;SDS011;1335;48.180;16.342;2023-08-30T02:03:21;1.87;;;1.13;;
2650;SDS011;1335;48.180;16.342;2023-08-30T02:05:52;0.90;;;0.90;;
2650;SDS011;1335;48.180;16.342;2023-08-30T02:08:19;1.30;;;1.20;;
2650;SDS011;1335;48.180;16.342;2023-08-30T02:10:48;1.53;;;1.43;;
2650;SDS011;1335;48.180;16.342;2023-08-30T02:13:17;1.53;;;1.30;;
2650;SDS011;1335;48.180;16.342;2023-08-30T02:15:44;1.03;;;1.03;;
2650;SDS011;1335;48.180;16.342;2023-08-30T02:18:12;1.97;;;1.33;;
2650;SDS011;1335;48.180;16.342;2023-08-30T02:20:40;1.43;;;1.33;;
2650;SDS011;1335;48.180;16.342;2023-08-30T02:23:09;1.70;;;1.60;;
2650;SDS011;1335;48.180;16.342;2023-08-30T02:25:36;2.73;;;1.53;;
2650;SDS011;1335;48.180;16.342;2023-08-30T02:28:03;1.50;;;1.40;;
2650;SDS011;1335;48.180;16.342;2023-08-30T02:30:31;1.67;;;1.27;;
2650;SDS011;1335;48.180;16.342;2023-08-30T02:32:58;1.17;;;1.17;;
2650;SDS011;1335;48.180;16.342;2023-08-30T02:35:25;1.50;;;1.40;;
2650;SDS011;1335;48.180;16.342;2023-08-30T02:37:54;1.23;;;1.20;;
2650;SDS011;1335;48.180;16.342;2023-08-30T02:40:21;1.60;;;1.50;;
2650;SDS011;1335;48.180;16.342;2023-08-30T02:42:48;1.37;;;1.33;;
2650;SDS011;1335;48.180;16.342;2023-08-30T02:45:16;1.30;;;1.20;;
2650;SDS011;1335;48.180;16.342;2023-08-30T02:47:44;1.60;;;1.50;;
2650;SDS011;1335;48.180;16.342;2023-08-30T02:50:11;1.57;;;1.47;;
2650;SDS011;1335;48.180;16.342;2023-08-30T02:52:39;1.40;;;1.30;;
2650;SDS011;1335;48.180;16.342;2023-08-30T02:55:07;1.57;;;1.40;;
2650;SDS011;1335;48.180;16.342;2023-08-30T02:57:35;1.43;;;1.43;;
2650;SDS011;1335;48.180;16.342;2023-08-30T03:00:02;1.70;;;1.60;;
2650;SDS011;1335;48.180;16.342;2023-08-30T03:02:31;1.80;;;1.70;;
2650;SDS011;1335;48.180;16.342;2023-08-30T03:04:58;1.20;;;1.20;;
2650;SDS011;1335;48.180;16.342;2023-08-30T03:07:28;1.40;;;1.30;;
2650;SDS011;1335;48.180;16.342;2023-08-30T03:09:55;1.50;;;1.40;;
2650;SDS011;1335;48.180;16.342;2023-08-30T03:12:24;1.57;;;1.47;;
2650;SDS011;1335;48.180;16.342;2023-08-30T03:14:51;1.40;;;1.30;;
2650;SDS011;1335;48.180;16.342;2023-08-30T03:17:18;1.93;;;1.40;;
2650;SDS011;1335;48.180;16.342;2023-08-30T03:19:45;1.60;;;1.50;;
2650;SDS011;1335;48.180;16.342;2023-08-30T03:22:12;1.90;;;1.80;;
2650;SDS011;1335;48.180;16.342;2023-08-30T03:24:40;1.97;;;1.87;;
2650;SDS011;1335;48.180;16.342;2023-08-30T03:27:07;1.17;;;1.17;;
2650;SDS011;1335;48.180;16.342;2023-08-30T03:29:35;1.33;;;1.23;;
2650;SDS011;1335;48.180;16.342;2023-08-30T03:32:03;1.57;;;1.47;;
2650;SDS011;1335;48.180;16.342;2023-08-30T03:34:30;1.63;;;1.20;;
2650;SDS011;1335;48.180;16.342;2023-08-30T03:36:57;1.30;;;1.23;;
2650;SDS011;1335;48.180;16.342;2023-08-30T03:39:25;1.37;;;1.30;;
2650;SDS011;1335;48.180;16.342;2023-08-30T03:41:52;1.40;;;1.30;;
2650;SDS011;1335;48.180;16.342;2023-08-30T03:44:19;1.23;;;1.23;;
2650;SDS011;1335;48.180;16.342;2023-08-30T03:46:48;1.63;;;1.30;;
2650;SDS011;1335;48.180;16.342;2023-08-30T03:49:15;1.03;;;0.93;;
2650;SDS011;1335;48.180;16.342;2023-08-30T03:51:42;1.90;;;1.70;;
2650;SDS011;1335;48.180;16.342;2023-08-30T03:54:09;2.27;;;2.17;;
2650;SDS011;1335;48.180;16.342;2023-08-30T03:56:41;1.60;;;1.50;;
2650;SDS011;1335;48.180;16.342;2023-08-30T03:59:08;2.40;;;2.03;;
2650;SDS011;1335;48.180;16.342;2023-08-30T04:01:35;2.60;;;2.40;;
2650;SDS011;1335;48.180;16.342;2023-08-30T04:04:04;1.50;;;1.40;;
2650;SDS011;1335;48.180;16.342;2023-08-30T04:06:31;1.60;;;1.50;;
2650;SDS011;1335;48.180;16.342;2023-08-30T04:08:59;1.53;;;1.43;;
2650;SDS011;1335;48.180;16.342;2023-08-30T04:11:26;2.40;;;2.23;;
2650;SDS011;1335;48.180;16.342;2023-08-30T04:13:53;1.90;;;1.80;;
2650;SDS011;1335;48.180;16.342;2023-08-30T04:16:20;1.80;;;1.70;;
2650;SDS011;1335;48.180;16.342;2023-08-30T04:18:47;2.00;;;1.90;;
2650;SDS011;1335;48.180;16.342;2023-08-30T04:21:16;2.00;;;1.90;;
2650;SDS011;1335;48.180;16.342;2023-08-30T04:23:43;2.00;;;1.80;;
2650;SDS011;1335;48.180;16.342;2023-08-30T04:26:11;1.83;;;1.67;;
2650;SDS011;1335;48.180;16.342;2023-08-30T04:28:38;2.60;;;2.40;;
2650;SDS011;1335;48.180;16.342;2023-08-30T04:31:05;2.37;;;2.17;;
2650;SDS011;1335;48.180;16.342;2023-08-30T04:33:32;1.90;;;1.80;;
2650;SDS011;1335;48.180;16.342;2023-08-30T04:36:00;2.27;;;2.17;;
2650;SDS011;1335;48.180;16.342;2023-08-30T04:38:30;2.67;;;2.47;;
2650;SDS011;1335;48.180;16.342;2023-08-30T04:40:57;2.30;;;2.20;;
2650;SDS011;1335;48.180;16.342;2023-08-30T04:43:25;2.70;;;2.50;;
2650;SDS011;1335;48.180;16.342;2023-08-30T04:45:53;1.90;;;1.80;;
2650;SDS011;1335;48.180;16.342;2023-08-30T04:48:20;2.83;;;2.30;;
2650;SDS011;1335;48.180;16.342;2023-08-30T04:50:49;2.50;;;2.30;;
2650;SDS011;1335;48.180;16.342;2023-08-30T04:53:16;2.70;;;2.50;;
2650;SDS011;1335;48.180;16.342;2023-08-30T04:55:45;2.93;;;2.37;;
2650;SDS011;1335;48.180;16.342;2023-08-30T04:58:12;2.47;;;2.27;;
2650;SDS011;1335;48.180;16.342;2023-08-30T05:00:39;2.50;;;2.30;;
2650;SDS011;1335;48.180;16.342;2023-08-30T05:03:07;2.70;;;2.50;;
2650;SDS011;1335;48.180;16.342;2023-08-30T05:05:34;3.00;;;2.67;;
2650;SDS011;1335;48.180;16.342;2023-08-30T05:08:01;2.40;;;2.30;;
2650;SDS011;1335;48.180;16.342;2023-08-30T05:10:29;2.50;;;2.30;;
2650;SDS011;1335;48.180;16.342;2023-08-30T05:12:58;4.30;;;2.50;;
2650;SDS011;1335;48.180;16.342;2023-08-30T05:15:25;3.10;;;2.90;;
2650;SDS011;1335;48.180;16.342;2023-08-30T05:17:52;3.17;;;2.97;;
2650;SDS011;1335;48.180;16.342;2023-08-30T05:20:19;2.37;;;2.20;;
2650;SDS011;1335;48.180;16.342;2023-08-30T05:22:47;2.57;;;2.37;;
2650;SDS011;1335;48.180;16.342;2023-08-30T05:25:14;2.40;;;2.30;;
2650;SDS011;1335;48.180;16.342;2023-08-30T05:27:41;2.70;;;2.50;;
2650;SDS011;1335;48.180;16.342;2023-08-30T05:30:10;3.10;;;2.90;;
2650;SDS011;1335;48.180;16.342;2023-08-30T05:32:38;5.63;;;3.30;;
2650;SDS011;1335;48.180;16.342;2023-08-30T05:35:05;3.60;;;3.30;;
2650;SDS011;1335;48.180;16.342;2023-08-30T05:37:33;3.00;;;2.80;;
2650;SDS011;1335;48.180;16.342;2023-08-30T05:40:00;3.13;;;2.83;;
2650;SDS011;1335;48.180;16.342;2023-08-30T05:42:29;2.80;;;2.60;;
2650;SDS011;1335;48.180;16.342;2023-08-30T05:44:56;3.10;;;2.90;;
2650;SDS011;1335;48.180;16.342;2023-08-30T05:47:24;3.47;;;2.97;;
2650;SDS011;1335;48.180;16.342;2023-08-30T05:49:52;2.57;;;2.37;;
2650;SDS011;1335;48.180;16.342;2023-08-30T05:52:19;3.00;;;2.80;;
2650;SDS011;1335;48.180;16.342;2023-08-30T05:54:46;2.13;;;2.03;;
2650;SDS011;1335;48.180;16.342;2023-08-30T05:57:13;4.20;;;3.73;;
2650;SDS011;1335;48.180;16.342;2023-08-30T05:59:41;5.03;;;3.07;;
2650;SDS011;1335;48.180;16.342;2023-08-30T06:02:08;2.97;;;2.60;;
2650;SDS011;1335;48.180;16.342;2023-08-30T06:04:36;3.70;;;2.57;;
2650;SDS011;1335;48.180;16.342;2023-08-30T06:07:04;2.10;;;2.00;;
2650;SDS011;1335;48.180;16.342;2023-08-30T06:09:31;2.23;;;2.13;;
2650;SDS011;1335;48.180;16.342;2023-08-30T06:11:58;2.63;;;2.50;;
2650;SDS011;1335;48.180;16.342;2023-08-30T06:14:25;2.33;;;2.23;;
2650;SDS011;1335;48.180;16.342;2023-08-30T06:16:53;3.00;;;2.70;;
2650;SDS011;1335;48.180;16.342;2023-08-30T06:19:20;3.00;;;2.27;;
2650;SDS011;1335;48.180;16.342;2023-08-30T06:21:48;3.80;;;3.00;;
2650;SDS011;1335;48.180;16.342;2023-08-30T06:24:16;3.07;;;2.60;;
2650;SDS011;1335;48.180;16.342;2023-08-30T06:26:43;3.20;;;2.97;;
2650;SDS011;1335;48.180;16.342;2023-08-30T06:29:10;2.37;;;2.20;;
2650;SDS011;1335;48.180;16.342;2023-08-30T06:31:38;2.47;;;2.27;;
2650;SDS011;1335;48.180;16.342;2023-08-30T06:34:07;2.33;;;2.23;;
2650;SDS011;1335;48.180;16.342;2023-08-30T06:36:34;3.60;;;2.33;;
2650;SDS011;1335;48.180;16.342;2023-08-30T06:39:03;2.00;;;1.90;;
2650;SDS011;1335;48.180;16.342;2023-08-30T06:41:30;2.23;;;1.90;;
2650;SDS011;1335;48.180;16.342;2023-08-30T06:43:58;2.30;;;2.10;;
2650;SDS011;1335;48.180;16.342;2023-08-30T06:46:25;2.70;;;1.90;;
2650;SDS011;1335;48.180;16.342;2023-08-30T06:48:52;2.10;;;2.00;;
2650;SDS011;1335;48.180;16.342;2023-08-30T06:51:19;1.83;;;1.73;;
2650;SDS011;1335;48.180;16.342;2023-08-30T06:53:47;2.77;;;2.00;;
2650;SDS011;1335;48.180;16.342;2023-08-30T06:56:15;2.77;;;1.70;;
2650;SDS011;1335;48.180;16.342;2023-08-30T06:58:42;2.17;;;2.07;;
2650;SDS011;1335;48.180;16.342;2023-08-30T07:01:10;1.70;;;1.60;;
2650;SDS011;1335;48.180;16.342;2023-08-30T07:03:37;4.27;;;1.97;;
2650;SDS011;1335;48.180;16.342;2023-08-30T07:06:05;1.90;;;1.80;;
2650;SDS011;1335;48.180;16.342;2023-08-30T07:08:32;2.30;;;2.20;;
2650;SDS011;1335;48.180;16.342;2023-08-30T07:10:59;2.23;;;2.10;;
2650;SDS011;1335;48.180;16.342;2023-08-30T07:13:28;1.90;;;1.80;;
2650;SDS011;1335;48.180;16.342;2023-08-30T07:15:56;2.37;;;2.27;;
2650;SDS011;1335;48.180;16.342;2023-08-30T07:18:23;2.40;;;2.20;;
2650;SDS011;1335;48.180;16.342;2023-08-30T07:20:50;1.83;;;1.73;;
2650;SDS011;1335;48.180;16.342;2023-08-30T07:23:17;1.77;;;1.67;;
2650;SDS011;1335;48.180;16.342;2023-08-30T07:25:44;1.50;;;1.40;;
2650;SDS011;1335;48.180;16.342;2023-08-30T07:28:12;2.07;;;1.97;;
2650;SDS011;1335;48.180;16.342;2023-08-30T07:30:40;2.50;;;1.67;;
2650;SDS011;1335;48.180;16.342;2023-08-30T07:33:08;2.20;;;2.10;;
2650;SDS011;1335;48.180;16.342;2023-08-30T07:35:35;2.13;;;1.60;;
2650;SDS011;1335;48.180;16.342;2023-08-30T07:38:04;1.30;;;1.23;;
2650;SDS011;1335;48.180;16.342;2023-08-30T07:40:31;1.70;;;1.10;;
2650;SDS011;1335;48.180;16.342;2023-08-30T07:42:58;1.23;;;1.13;;
2650;SDS011;1335;48.180;16.342;2023-08-30T07:45:26;1.83;;;0.73;;
2650;SDS011;1335;48.180;16.342;2023-08-30T07:47:54;2.17;;;0.70;;
2650;SDS011;1335;48.180;16.342;2023-08-30T07:50:22;0.87;;;0.87;;
2650;SDS011;1335;48.180;16.342;2023-08-30T07:52:49;1.33;;;1.00;;
2650;SDS011;1335;48.180;16.342;2023-08-30T07:55:16;1.23;;;0.93;;
2650;SDS011;1335;48.180;16.342;2023-08-30T07:57:43;1.07;;;0.97;;
2650;SDS011;1335;48.180;16.342;2023-08-30T08:00:11;0.83;;;0.83;;
2650;SDS011;1335;48.180;16.342;2023-08-30T08:02:39;1.10;;;0.83;;
2650;SDS011;1335;48.180;16.342;2023-08-30T08:05:08;0.97;;;0.90;;
2650;SDS011;1335;48.180;16.342;2023-08-30T08:07:37;1.23;;;0.70;;
2650;SDS011;1335;48.180;16.342;2023-08-30T08:10:05;0.50;;;0.50;;
2650;SDS011;1335;48.180;16.342;2023-08-30T08:12:33;0.70;;;0.63;;
2650;SDS011;1335;48.180;16.342;2023-08-30T08:15:00;1.23;;;0.93;;
2650;SDS011;1335;48.180;16.342;2023-08-30T08:17:28;1.13;;;0.80;;
2650;SDS011;1335;48.180;16.342;2023-08-30T08:19:55;0.70;;;0.70;;
2650;SDS011;1335;48.180;16.342;2023-08-30T08:22:24;1.27;;;0.63;;
2650;SDS011;1335;48.180;16.342;2023-08-30T08:24:51;0.87;;;0.87;;
2650;SDS011;1335;48.180;16.342;2023-08-30T08:27:21;0.80;;;0.80;;
2650;SDS011;1335;48.180;16.342;2023-08-30T08:29:48;0.70;;;0.70;;
2650;SDS011;1335;48.180;16.342;2023-08-30T08:32:15;1.30;;;1.20;;
2650;SDS011;1335;48.180;16.342;2023-08-30T08:34:43;0.80;;;0.80;;
2650;SDS011;1335;48.180;16.342;2023-08-30T08:37:10;0.73;;;0.73;;
2650;SDS011;1335;48.180;16.342;2023-08-30T08:39:39;1.00;;;1.00;;
2650;SDS011;1335;48.180;16.342;2023-08-30T08:42:08;2.60;;;0.97;;
2650;SDS011;1335;48.180;16.342;2023-08-30T08:44:35;0.60;;;0.60;;
2650;SDS011;1335;48.180;16.342;2023-08-30T08:47:03;1.30;;;1.20;;
2650;SDS011;1335;48.180;16.342;2023-08-30T08:49:30;0.90;;;0.90;;
2650;SDS011;1335;48.180;16.342;2023-08-30T08:51:57;1.50;;;1.10;;
2650;SDS011;1335;48.180;16.342;2023-08-30T08:54:25;0.93;;;0.93;;
2650;SDS011;1335;48.180;16.342;2023-08-30T08:56:54;0.77;;;0.77;;
2650;SDS011;1335;48.180;16.342;2023-08-30T08:59:22;0.87;;;0.87;;
2650;SDS011;1335;48.180;16.342;2023-08-30T09:01:50;1.17;;;0.83;;
2650;SDS011;1335;48.180;16.342;2023-08-30T09:04:18;0.97;;;0.90;;
2650;SDS011;1335;48.180;16.342;2023-08-30T09:06:45;1.17;;;1.07;;
2650;SDS011;1335;48.180;16.342;2023-08-30T09:09:13;1.80;;;0.93;;
2650;SDS011;1335;48.180;16.342;2023-08-30T09:11:41;0.90;;;0.90;;
2650;SDS011;1335;48.180;16.342;2023-08-30T09:14:09;0.70;;;0.70;;
2650;SDS011;1335;48.180;16.342;2023-08-30T09:16:37;0.63;;;0.63;;
2650;SDS011;1335;48.180;16.342;2023-08-30T09:19:04;0.50;;;0.47;;
2650;SDS011;1335;48.180;16.342;2023-08-30T09:21:32;0.40;;;0.40;;
2650;SDS011;1335;48.180;16.342;2023-08-30T09:24:00;1.07;;;0.40;;
2650;SDS011;1335;48.180;16.342;2023-08-30T09:26:28;0.40;;;0.40;;
2650;SDS011;1335;48.180;16.342;2023-08-30T09:29:00;1.83;;;0.77;;
2650;SDS011;1335;48.180;16.342;2023-08-30T09:31:33;0.83;;;0.70;;
2650;SDS011;1335;48.180;16.342;2023-08-30T09:34:01;0.80;;;0.80;;
2650;SDS011;1335;48.180;16.342;2023-08-30T09:36:32;1.53;;;0.60;;
2650;SDS011;1335;48.180;16.342;2023-08-30T09:39:02;0.80;;;0.50;;
2650;SDS011;1335;48.180;16.342;2023-08-30T09:41:30;0.87;;;0.50;;
2650;SDS011;1335;48.180;16.342;2023-08-30T09:43:58;0.60;;;0.60;;
2650;SDS011;1335;48.180;16.342;2023-08-30T09:46:25;0.40;;;0.40;;
2650;SDS011;1335;48.180;16.342;2023-08-30T09:48:54;0.70;;;0.60;;
2650;SDS011;1335;48.180;16.342;2023-08-30T09:51:22;0.87;;;0.87;;
2650;SDS011;1335;48.180;16.342;2023-08-30T09:53:52;0.60;;;0.60;;
2650;SDS011;1335;48.180;16.342;2023-08-30T09:56:20;1.37;;;0.60;;
2650;SDS011;1335;48.180;16.342;2023-08-30T09:58:49;1.33;;;0.70;;
2650;SDS011;1335;48.180;16.342;2023-08-30T10:01:16;1.83;;;1.13;;
2650;SDS011;1335;48.180;16.342;2023-08-30T10:03:43;2.97;;;0.60;;
2650;SDS011;1335;48.180;16.342;2023-08-30T10:06:12;2.43;;;0.80;;
2650;SDS011;1335;48.180;16.342;2023-08-30T10:08:40;0.60;;;0.60;;
2650;SDS011;1335;48.180;16.342;2023-08-30T10:11:08;0.77;;;0.70;;
2650;SDS011;1335;48.180;16.342;2023-08-30T10:13:38;0.57;;;0.57;;
2650;SDS011;1335;48.180;16.342;2023-08-30T10:16:05;1.00;;;1.00;;
2650;SDS011;1335;48.180;16.342;2023-08-30T10:18:33;0.80;;;0.80;;
2650;SDS011;1335;48.180;16.342;2023-08-30T10:21:02;0.80;;;0.80;;
2650;SDS011;1335;48.180;16.342;2023-08-30T10:23:32;0.80;;;0.80;;
2650;SDS011;1335;48.180;16.342;2023-08-30T10:25:59;1.20;;;1.10;;
2650;SDS011;1335;48.180;16.342;2023-08-30T10:28:28;1.00;;;1.00;;
2650;SDS011;1335;48.180;16.342;2023-08-30T10:30:56;2.00;;;0.90;;
2650;SDS011;1335;48.180;16.342;2023-08-30T10:33:23;1.10;;;0.73;;
2650;SDS011;1335;48.180;16.342;2023-08-30T10:35:51;2.10;;;1.07;;
2650;SDS011;1335;48.180;16.342;2023-08-30T10:38:24;1.00;;;1.00;;
2650;SDS011;1335;48.180;16.342;2023-08-30T10:40:54;1.23;;;1.13;;
2650;SDS011;1335;48.180;16.342;2023-08-30T10:43:27;1.57;;;1.47;;
2650;SDS011;1335;48.180;16.342;2023-08-30T10:45:59;0.77;;;0.77;;
2650;SDS011;1335;48.180;16.342;2023-08-30T10:48:33;0.80;;;0.80;;
2650;SDS011;1335;48.180;16.342;2023-08-30T10:51:01;1.17;;;1.10;;
2650;SDS011;1335;48.180;16.342;2023-08-30T10:53:29;1.10;;;1.00;;
2650;SDS011;1335;48.180;16.342;2023-08-30T10:56:04;2.33;;;1.10;;
2650;SDS011;1335;48.180;16.342;2023-08-30T10:58:40;1.30;;;1.20;;
2650;SDS011;1335;48.180;16.342;2023-08-30T11:01:09;1.13;;;1.00;;
2650;SDS011;1335;48.180;16.342;2023-08-30T11:03:37;1.23;;;1.13;;
2650;SDS011;1335;48.180;16.342;2023-08-30T11:06:05;1.23;;;1.23;;
2650;SDS011;1335;48.180;16.342;2023-08-30T11:08:32;3.00;;;1.17;;
2650;SDS011;1335;48.180;16.342;2023-08-30T11:11:02;2.13;;;1.20;;
2650;SDS011;1335;48.180;16.342;2023-08-30T11:13:31;1.13;;;1.07;;
2650;SDS011;1335;48.180;16.342;2023-08-30T11:16:01;1.57;;;1.43;;
2650;SDS011;1335;48.180;16.342;2023-08-30T11:18:29;1.50;;;1.40;;
2650;SDS011;1335;48.180;16.342;2023-08-30T11:20:59;1.17;;;1.17;;
2650;SDS011;1335;48.180;16.342;2023-08-30T11:23:27;1.07;;;1.07;;
2650;SDS011;1335;48.180;16.342;2023-08-30T11:25:54;0.93;;;0.93;;
2650;SDS011;1335;48.180;16.342;2023-08-30T11:28:22;1.03;;;1.03;;
2650;SDS011;1335;48.180;16.342;2023-08-30T11:30:50;0.80;;;0.80;;
2650;SDS011;1335;48.180;16.342;2023-08-30T11:33:19;0.90;;;0.90;;
2650;SDS011;1335;48.180;16.342;2023-08-30T11:35:48;0.83;;;0.83;;
2650;SDS011;1335;48.180;16.342;2023-08-30T11:38:16;0.73;;;0.73;;
2650;SDS011;1335;48.180;16.342;2023-08-30T11:40:44;1.03;;;1.00;;
2650;SDS011;1335;48.180;16.342;2023-08-30T11:43:12;1.30;;;1.27;;
2650;SDS011;1335;48.180;16.342;2023-08-30T11:45:39;0.80;;;0.80;;
2650;SDS011;1335;48.180;16.342;2023-08-30T11:48:07;0.77;;;0.77;;
2650;SDS011;1335;48.180;16.342;2023-08-30T11:50:35;1.43;;;1.33;;
2650;SDS011;1335;48.180;16.342;2023-08-30T11:53:02;1.10;;;1.10;;
2650;SDS011;1335;48.180;16.342;2023-08-30T11:55:30;3.00;;;1.47;;
2650;SDS011;1335;48.180;16.342;2023-08-30T11:57:57;1.73;;;0.93;;
2650;SDS011;1335;48.180;16.342;2023-08-30T12:00:25;2.43;;;0.90;;
2650;SDS011;1335;48.180;16.342;2023-08-30T12:02:52;2.90;;;1.07;;
2650;SDS011;1335;48.180;16.342;2023-08-30T12:05:21;0.80;;;0.80;;
2650;SDS011;1335;48.180;16.342;2023-08-30T12:07:48;1.27;;;0.90;;
2650;SDS011;1335;48.180;16.342;2023-08-30T12:10:17;0.70;;;0.70;;
2650;SDS011;1335;48.180;16.342;2023-08-30T12:12:46;0.90;;;0.90;;
2650;SDS011;1335;48.180;16.342;2023-08-30T12:15:13;1.37;;;0.60;;
2650;SDS011;1335;48.180;16.342;2023-08-30T12:17:41;1.17;;;0.70;;
2650;SDS011;1335;48.180;16.342;2023-08-30T12:20:14;0.70;;;0.70;;
2650;SDS011;1335;48.180;16.342;2023-08-30T12:22:44;4.93;;;1.00;;
2650;SDS011;1335;48.180;16.342;2023-08-30T12:25:16;1.00;;;1.00;;
2650;SDS011;1335;48.180;16.342;2023-08-30T12:27:43;0.90;;;0.90;;
2650;SDS011;1335;48.180;16.342;2023-08-30T12:30:11;1.17;;;1.07;;
2650;SDS011;1335;48.180;16.342;2023-08-30T12:32:39;0.57;;;0.57;;
2650;SDS011;1335;48.180;16.342;2023-08-30T12:35:06;1.17;;;1.07;;
2650;SDS011;1335;48.180;16.342;2023-08-30T12:37:34;1.20;;;1.10;;
2650;SDS011;1335;48.180;16.342;2023-08-30T12:40:03;1.47;;;1.10;;
2650;SDS011;1335;48.180;16.342;2023-08-30T12:42:31;1.30;;;1.20;;
2650;SDS011;1335;48.180;16.342;2023-08-30T12:44:58;1.03;;;1.03;;
2650;SDS011;1335;48.180;16.342;2023-08-30T12:47:26;0.70;;;0.70;;
2650;SDS011;1335;48.180;16.342;2023-08-30T12:49:53;1.00;;;1.00;;
2650;SDS011;1335;48.180;16.342;2023-08-30T12:52:20;0.80;;;0.80;;
2650;SDS011;1335;48.180;16.342;2023-08-30T12:54:47;0.80;;;0.80;;
2650;SDS011;1335;48.180;16.342;2023-08-30T12:57:18;1.40;;;1.30;;
2650;SDS011;1335;48.180;16.342;2023-08-30T12:59:45;1.00;;;1.00;;
2650;SDS011;1335;48.180;16.342;2023-08-30T13:02:12;1.10;;;1.03;;
2650;SDS011;1335;48.180;16.342;2023-08-30T13:04:40;1.03;;;1.03;;
2650;SDS011;1335;48.180;16.342;2023-08-30T13:07:07;1.10;;;0.80;;
2650;SDS011;1335;48.180;16.342;2023-08-30T13:09:34;1.40;;;0.87;;
2650;SDS011;1335;48.180;16.342;2023-08-30T13:12:01;1.10;;;0.97;;
2650;SDS011;1335;48.180;16.342;2023-08-30T13:14:30;0.90;;;0.70;;
2650;SDS011;1335;48.180;16.342;2023-08-30T13:16:58;0.80;;;0.80;;
2650;SDS011;1335;48.180;16.342;2023-08-30T13:19:25;0.93;;;0.50;;
2650;SDS011;1335;48.180;16.342;2023-08-30T13:21:52;1.10;;;1.00;;
2650;SDS011;1335;48.180;16.342;2023-08-30T13:24:20;2.20;;;1.00;;
2650;SDS011;1335;48.180;16.342;2023-08-30T13:26:47;0.87;;;0.67;;
2650;SDS011;1335;48.180;16.342;2023-08-30T13:29:14;1.27;;;1.03;;
2650;SDS011;1335;48.180;16.342;2023-08-30T13:31:43;1.00;;;1.00;;
2650;SDS011;1335;48.180;16.342;2023-08-30T13:34:10;1.53;;;1.43;;
2650;SDS011;1335;48.180;16.342;2023-08-30T13:36:37;1.43;;;0.90;;
2650;SDS011;1335;48.180;16.342;2023-08-30T13:39:04;0.83;;;0.83;;
2650;SDS011;1335;48.180;16.342;2023-08-30T13:41:32;1.00;;;1.00;;
2650;SDS011;1335;48.180;16.342;2023-08-30T13:43:59;0.87;;;0.87;;
2650;SDS011;1335;48.180;16.342;2023-08-30T13:46:26;0.80;;;0.80;;
2650;SDS011;1335;48.180;16.342;2023-08-30T13:48:55;0.90;;;0.90;;
2650;SDS011;1335;48.180;16.342;2023-08-30T13:51:22;1.57;;;1.20;;
2650;SDS011;1335;48.180;16.342;2023-08-30T13:53:50;0.80;;;0.80;;
2650;SDS011;1335;48.180;16.342;2023-08-30T13:56:17;1.00;;;0.80;;
2650;SDS011;1335;48.180;16.342;2023-08-30T13:58:45;0.70;;;0.70;;
2650;SDS011;1335;48.180;16.342;2023-08-30T14:01:12;0.80;;;0.80;;
2650;SDS011;1335;48.180;16.342;2023-08-30T14:03:39;1.03;;;0.80;;
2650;SDS011;1335;48.180;16.342;2023-08-30T14:06:08;0.83;;;0.83;;
2650;SDS011;1335;48.180;16.342;2023-08-30T14:08:35;0.90;;;0.77;;
2650;SDS011;1335;48.180;16.342;2023-08-30T14:11:02;0.90;;;0.87;;
2650;SDS011;1335;48.180;16.342;2023-08-30T14:13:30;0.93;;;0.90;;
2650;SDS011;1335;48.180;16.342;2023-08-30T14:15:57;2.30;;;2.10;;
2650;SDS011;1335;48.180;16.342;2023-08-30T14:18:25;0.97;;;0.90;;
2650;SDS011;1335;48.180;16.342;2023-08-30T14:20:54;0.77;;;0.63;;
2650;SDS011;1335;48.180;16.342;2023-08-30T14:23:23;0.70;;;0.70;;
2650;SDS011;1335;48.180;16.342;2023-08-30T14:25:57;0.67;;;0.67;;
2650;SDS011;1335;48.180;16.342;2023-08-30T14:28:24;1.10;;;1.10;;
2650;SDS011;1335;48.180;16.342;2023-08-30T14:30:51;0.90;;;0.90;;
2650;SDS011;1335;48.180;16.342;2023-08-30T14:33:19;0.60;;;0.57;;
2650;SDS011;1335;48.180;16.342;2023-08-30T14:35:46;1.37;;;1.27;;
2650;SDS011;1335;48.180;16.342;2023-08-30T14:38:13;1.10;;;0.70;;
2650;SDS011;1335;48.180;16.342;2023-08-30T14:40:42;0.90;;;0.67;;
2650;SDS011;1335;48.180;16.342;2023-08-30T14:43:09;0.70;;;0.70;;
2650;SDS011;1335;48.180;16.342;2023-08-30T14:45:37;0.83;;;0.73;;
2650;SDS011;1335;48.180;16.342;2023-08-30T14:48:05;0.83;;;0.77;;
2650;SDS011;1335;48.180;16.342;2023-08-30T14:50:33;0.90;;;0.90;;
2650;SDS011;1335;48.180;16.342;2023-08-30T14:53:00;0.73;;;0.73;;
2650;SDS011;1335;48.180;16.342;2023-08-30T14:55:28;0.70;;;0.70;;
2650;SDS011;1335;48.180;16.342;2023-08-30T14:57:57;1.10;;;1.00;;
2650;SDS011;1335;48.180;16.342;2023-08-30T15:00:24;1.10;;;1.00;;
2650;SDS011;1335;48.180;16.342;2023-08-30T15:02:52;1.73;;;0.90;;
2650;SDS011;1335;48.180;16.342;2023-08-30T15:05:19;2.13;;;1.00;;